Time;durP1;ratioP1;P1;durP2;ratioP2;P2;SDS_P1;SDS_P2;PMS_P1;PMS_P2;Temp;Humidity;BMP_temperature;BMP_pressure;BME280_temperature;BME280_humidity;BME280_pressure;Samples;Min_cycle;Max_cycle;Signal;HPM_P1;HPM_P2
2022/05/25 00:00:41;;;;;;;0.55;0.20;;;;;;;25.52;33.38;101440.75;5102733;28;20410;-45
2022/05/25 00:03:10;;;;;;;1.42;0.30;;;;;;;25.53;33.53;101453.91;5103256;28;20024;-46
2022/05/25 00:05:39;;;;;;;1.05;0.40;;;;;;;25.49;33.56;101449.47;5103465;28;20087;-45
2022/05/25 00:08:09;;;;;;;0.70;0.40;;;;;;;25.48;33.80;101448.59;5103189;28;20027;-46
2022/05/25 00:10:38;;;;;;;1.95;0.30;;;;;;;25.52;33.65;101452.13;5102847;28;20899;-48
2022/05/25 00:13:07;;;;;;;2.05;0.43;;;;;;;25.49;33.54;101457.34;5103224;28;20051;-47
2022/05/25 00:15:36;;;;;;;1.00;0.30;;;;;;;25.44;33.64;101459.03;5103839;28;20194;-46
2022/05/25 00:18:05;;;;;;;1.85;0.60;;;;;;;25.46;33.81;101465.22;5106141;28;20055;-44
2022/05/25 00:20:35;;;;;;;1.10;0.40;;;;;;;25.40;33.94;101459.81;5098950;28;20545;-45
2022/05/25 00:23:04;;;;;;;1.95;0.25;;;;;;;25.46;33.56;101473.09;5107205;28;20032;-46
2022/05/25 00:25:35;;;;;;;0.80;0.22;;;;;;;25.40;33.84;101473.81;5106065;28;20028;-46
2022/05/25 00:28:06;;;;;;;0.88;0.28;;;;;;;25.44;33.78;101472.19;5095856;28;20081;-48
2022/05/25 00:30:35;;;;;;;0.98;0.20;;;;;;;25.41;33.80;101472.09;5107249;28;20043;-45
2022/05/25 00:33:03;;;;;;;0.80;0.30;;;;;;;25.38;33.57;101465.06;5096303;28;20073;-45
2022/05/25 00:35:33;;;;;;;1.60;0.30;;;;;;;25.32;33.95;101481.56;5105424;28;20397;-49
2022/05/25 00:38:02;;;;;;;1.02;0.30;;;;;;;25.32;33.76;101478.09;5105653;28;20028;-46
2022/05/25 00:40:38;;;;;;;2.45;0.38;;;;;;;25.31;33.98;101479.84;5107003;28;20020;-46
2022/05/25 00:43:07;;;;;;;1.15;0.30;;;;;;;25.34;33.53;101481.63;5105325;28;20031;-51
2022/05/25 00:45:39;;;;;;;3.00;0.35;;;;;;;25.25;33.80;101476.22;5106521;28;20035;-45
2022/05/25 00:48:09;;;;;;;1.05;0.38;;;;;;;25.26;33.90;101486.75;5105151;28;20029;-45
2022/05/25 00:51:21;;;;;;;1.67;0.32;;;;;;;25.08;34.19;101470.72;5105194;28;20039;-45
2022/05/25 00:53:25;;;;;;;1.42;0.38;;;;;;;25.13;34.14;101477.78;5103271;28;20062;-46
2022/05/25 00:55:54;;;;;;;0.70;0.22;;;;;;;25.25;34.01;101482.34;5106465;28;20028;-46
2022/05/25 00:58:23;;;;;;;2.42;0.57;;;;;;;25.20;33.86;101468.25;5105102;28;20023;-47
2022/05/25 01:00:51;;;;;;;0.50;0.20;;;;;;;25.25;33.78;101471.84;5105160;28;20555;-47
2022/05/25 01:03:20;;;;;;;0.45;0.22;;;;;;;25.17;33.88;101465.59;5105970;28;20476;-47
2022/05/25 01:06:15;;;;;;;1.77;0.50;;;;;;;25.21;33.73;101475.28;5106329;28;20024;-47
2022/05/25 01:08:44;;;;;;;1.00;0.20;;;;;;;25.18;33.74;101478.75;5100501;28;20100;-49
2022/05/25 01:11:32;;;;;;;0.73;0.28;;;;;;;25.10;34.11;101477.72;5105531;28;20587;-45
2022/05/25 01:14:20;;;;;;;1.83;0.50;;;;;;;25.14;33.73;101474.31;5106192;28;20024;-45
2022/05/25 01:17:01;;;;;;;0.75;0.25;;;;;;;25.07;33.81;101484.69;5101884;28;20493;-45
2022/05/25 01:19:54;;;;;;;1.70;0.50;;;;;;;24.95;34.20;101488.88;5106310;28;20043;-46
2022/05/25 01:22:42;;;;;;;0.40;0.30;;;;;;;25.06;34.15;101491.69;5104206;28;20560;-45
2022/05/25 01:25:32;;;;;;;0.70;0.28;;;;;;;25.03;33.90;101495.13;5105791;28;20036;-45
2022/05/25 01:28:15;;;;;;;0.38;0.20;;;;;;;25.09;33.74;101485.59;5101428;28;20514;-48
2022/05/25 01:30:48;;;;;;;1.48;0.30;;;;;;;25.16;33.91;101490.06;5104174;28;20058;-49
2022/05/25 01:33:24;;;;;;;0.75;0.22;;;;;;;25.12;33.47;101497.03;5104171;28;20028;-50
2022/05/25 01:36:03;;;;;;;3.55;0.35;;;;;;;25.08;33.63;101497.81;5105585;28;20442;-46
2022/05/25 01:38:48;;;;;;;1.02;0.30;;;;;;;25.02;33.58;101495.97;5105815;28;20028;-49
2022/05/25 01:41:27;;;;;;;1.27;0.47;;;;;;;24.99;33.75;101500.31;5104390;28;20028;-45
2022/05/25 01:43:59;;;;;;;0.22;0.10;;;;;;;24.98;33.97;101496.81;5103995;28;20031;-46
2022/05/25 01:46:32;;;;;;;1.13;0.30;;;;;;;24.96;33.70;101503.78;5105159;28;20027;-48
2022/05/25 01:49:06;;;;;;;0.68;0.40;;;;;;;24.91;33.90;101499.28;5105506;28;20057;-52
2022/05/25 01:51:46;;;;;;;1.40;0.32;;;;;;;24.85;33.91;101510.56;5104174;28;20094;-46
2022/05/25 01:54:17;;;;;;;0.55;0.17;;;;;;;24.84;34.03;101501.81;5103774;28;20054;-45
2022/05/25 01:56:52;;;;;;;1.70;0.50;;;;;;;24.92;33.96;101511.53;5104938;28;20110;-45
2022/05/25 01:59:22;;;;;;;0.77;0.22;;;;;;;24.98;33.82;101519.53;5103737;28;20027;-46
2022/05/25 02:04:51;;;;;;;2.15;0.30;;;;;;;25.03;33.59;101515.25;5096829;28;20110;-46
2022/05/25 02:07:42;;;;;;;0.65;0.20;;;;;;;24.97;33.68;101525.63;5104992;28;20484;-48
2022/05/25 02:10:33;;;;;;;0.40;0.15;;;;;;;24.91;33.75;101528.13;5101765;28;20400;-48
2022/05/25 02:13:11;;;;;;;1.27;0.38;;;;;;;24.91;33.77;101530.75;5105049;28;20035;-48
2022/05/25 02:16:17;;;;;;;0.63;0.20;;;;;;;24.96;33.62;101519.53;5104979;28;20080;-49
2022/05/25 02:19:05;;;;;;;0.45;0.20;;;;;;;24.91;33.68;101530.75;5103733;28;20034;-48
2022/05/25 02:21:47;;;;;;;0.95;0.30;;;;;;;24.83;33.61;101536.78;5100128;28;20104;-47
2022/05/25 02:24:35;;;;;;;0.38;0.20;;;;;;;24.87;33.32;101532.47;5104592;28;20016;-48
2022/05/25 02:27:09;;;;;;;1.17;0.30;;;;;;;24.88;33.29;101524.63;5104832;28;20477;-48
2022/05/25 02:29:52;;;;;;;0.43;0.27;;;;;;;24.84;33.62;101527.16;5104765;28;20032;-47
2022/05/25 02:32:45;;;;;;;0.77;0.40;;;;;;;24.76;33.50;101520.91;5102964;28;20281;-45
2022/05/25 02:35:14;;;;;;;0.20;0.20;;;;;;;24.85;33.49;101528.91;5101073;28;20066;-48
2022/05/25 02:37:43;;;;;;;0.68;0.17;;;;;;;24.82;33.56;101518.41;5102847;28;20107;-49
2022/05/25 02:40:13;;;;;;;1.52;0.40;;;;;;;24.81;33.55;101524.50;5102637;28;20069;-47
2022/05/25 02:42:42;;;;;;;0.30;0.20;;;;;;;24.75;33.75;101527.88;5103161;28;20019;-45
2022/05/25 02:45:12;;;;;;;1.42;0.25;;;;;;;24.82;33.55;101518.41;5104238;28;20093;-49
2022/05/25 02:47:40;;;;;;;1.10;0.30;;;;;;;24.91;33.51;101518.53;5104320;28;20472;-47
2022/05/25 02:50:09;;;;;;;1.05;0.20;;;;;;;24.88;33.10;101515.88;5104089;28;20151;-47
2022/05/25 02:52:38;;;;;;;1.85;0.52;;;;;;;24.84;32.97;101504.44;5103824;28;20550;-49
2022/05/25 02:55:07;;;;;;;0.70;0.20;;;;;;;24.89;33.04;101507.13;5104103;28;20023;-48
2022/05/25 02:57:35;;;;;;;0.50;0.28;;;;;;;24.84;33.34;101514.03;5104251;28;20023;-48
2022/05/25 03:00:06;;;;;;;2.28;0.40;;;;;;;24.83;33.20;101530.63;5104363;28;20038;-48
2022/05/25 03:02:35;;;;;;;1.65;0.52;;;;;;;24.79;33.35;101527.06;5104290;28;20036;-50
2022/05/25 03:05:03;;;;;;;1.42;0.40;;;;;;;24.73;33.52;101524.34;5104330;28;20126;-49
2022/05/25 03:07:32;;;;;;;0.75;0.20;;;;;;;24.77;33.21;101526.16;5103196;28;20032;-46
2022/05/25 03:10:01;;;;;;;0.47;0.20;;;;;;;24.76;33.37;101513.03;5103851;28;20500;-49
2022/05/25 03:12:28;;;;;;;0.47;0.25;;;;;;;24.70;33.07;101506.78;5103667;28;20104;-50
2022/05/25 03:14:57;;;;;;;2.45;0.30;;;;;;;24.73;33.06;101509.47;5104295;28;20028;-49
2022/05/25 03:17:25;;;;;;;0.60;0.28;;;;;;;24.66;33.23;101507.56;5104037;28;20519;-49
2022/05/25 03:19:56;;;;;;;0.30;0.20;;;;;;;24.68;33.16;101508.47;5103836;28;20031;-46
2022/05/25 03:22:24;;;;;;;1.00;0.28;;;;;;;24.73;32.94;101513.88;5103721;28;20032;-50
2022/05/25 03:24:53;;;;;;;0.13;0.13;;;;;;;24.78;33.29;101519.19;5103939;28;20070;-49
2022/05/25 03:27:21;;;;;;;1.25;0.20;;;;;;;24.64;33.56;101511.91;5104062;28;20034;-52
2022/05/25 03:29:50;;;;;;;0.75;0.20;;;;;;;24.71;33.20;101516.44;5103703;28;20066;-45
2022/05/25 03:32:19;;;;;;;0.90;0.28;;;;;;;24.71;32.87;101518.19;5103888;28;20024;-49
2022/05/25 03:34:49;;;;;;;0.35;0.20;;;;;;;24.67;32.99;101506.69;5103847;28;20054;-47
2022/05/25 03:37:18;;;;;;;1.63;0.30;;;;;;;24.66;33.27;101512.78;5103815;28;20031;-49
2022/05/25 03:39:46;;;;;;;0.45;0.20;;;;;;;24.64;33.15;101519.78;5103604;28;20037;-48
2022/05/25 03:42:16;;;;;;;4.55;0.52;;;;;;;24.67;33.09;101516.31;5103617;28;20028;-49
2022/05/25 03:44:45;;;;;;;0.22;0.10;;;;;;;24.65;33.39;101511.06;5103641;28;20020;-46
2022/05/25 03:47:14;;;;;;;1.08;0.10;;;;;;;24.58;33.41;101514.41;5103554;28;20377;-46
2022/05/25 03:49:42;;;;;;;0.60;0.22;;;;;;;24.52;33.21;101512.56;5103408;28;20023;-52
2022/05/25 03:52:11;;;;;;;0.63;0.28;;;;;;;24.53;33.03;101509.09;5104751;28;20065;-46
2022/05/25 03:54:40;;;;;;;1.30;0.40;;;;;;;24.58;33.05;101514.41;5107926;28;20452;-46
2022/05/25 03:57:08;;;;;;;0.52;0.30;;;;;;;24.63;32.95;101522.34;5107580;28;20065;-49
2022/05/25 03:59:37;;;;;;;0.63;0.30;;;;;;;24.62;33.00;101524.13;5107620;28;20127;-45
2022/05/25 04:02:05;;;;;;;0.10;0.10;;;;;;;24.60;33.16;101532.78;5107549;28;20108;-50
2022/05/25 04:04:34;;;;;;;0.20;0.10;;;;;;;24.52;33.28;101520.44;5107510;28;20046;-46
2022/05/25 04:07:02;;;;;;;2.28;0.20;;;;;;;24.55;32.91;101525.75;5107411;28;20035;-46
2022/05/25 04:09:31;;;;;;;0.65;0.15;;;;;;;24.56;32.94;101526.59;5107011;28;20055;-49
2022/05/25 04:12:00;;;;;;;0.35;0.20;;;;;;;24.60;33.22;101530.16;5107200;28;20054;-47
2022/05/25 04:14:28;;;;;;;1.95;0.35;;;;;;;24.59;33.01;101529.28;5107233;28;20024;-50
2022/05/25 04:16:57;;;;;;;1.90;0.30;;;;;;;24.51;32.86;101538.75;5107170;28;20031;-49
2022/05/25 04:19:25;;;;;;;0.85;0.20;;;;;;;24.54;32.90;101541.44;5106571;28;20036;-45
2022/05/25 04:21:54;;;;;;;0.93;0.30;;;;;;;24.49;32.80;101541.34;5106986;28;20142;-52
2022/05/25 04:24:23;;;;;;;1.80;0.40;;;;;;;24.57;33.15;101544.13;5106710;28;20028;-46
2022/05/25 04:26:51;;;;;;;1.33;0.20;;;;;;;24.55;33.15;101548.44;5107016;28;20038;-46
2022/05/25 04:29:20;;;;;;;1.48;0.50;;;;;;;24.52;33.11;101543.13;5107160;28;20114;-46
2022/05/25 04:31:48;;;;;;;1.02;0.40;;;;;;;24.48;33.18;101536.09;5107231;28;20035;-51
2022/05/25 04:34:17;;;;;;;1.23;0.40;;;;;;;24.49;32.76;101550.97;5107023;28;20396;-46
2022/05/25 04:36:45;;;;;;;0.28;0.10;;;;;;;24.46;32.82;101551.75;5106820;28;20027;-49
2022/05/25 04:39:14;;;;;;;0.20;0.10;;;;;;;24.52;32.76;101544.03;5106746;28;20035;-50
2022/05/25 04:41:42;;;;;;;1.80;0.30;;;;;;;24.47;32.99;101547.44;5106748;28;20046;-45
2022/05/25 04:44:11;;;;;;;0.55;0.20;;;;;;;24.42;32.83;101547.31;5106675;28;20167;-45
2022/05/25 04:46:40;;;;;;;0.63;0.40;;;;;;;24.49;32.84;101567.56;5106989;28;20034;-50
2022/05/25 04:49:09;;;;;;;0.30;0.30;;;;;;;24.39;32.85;101574.34;5106981;28;20031;-48
2022/05/25 04:51:37;;;;;;;0.75;0.20;;;;;;;24.47;32.87;101573.66;5106686;28;20495;-49
2022/05/25 04:54:06;;;;;;;0.25;0.20;;;;;;;24.36;32.75;101568.19;5088612;28;20119;-47
2022/05/25 04:59:22;;;;;;;1.08;0.25;;;;;;;24.38;33.00;101569.09;5103235;28;20035;-46
2022/05/25 05:01:50;;;;;;;0.73;0.30;;;;;;;24.42;33.09;101577.06;5106634;28;20028;-50
2022/05/25 05:04:19;;;;;;;1.38;0.40;;;;;;;24.43;32.66;101577.91;5106028;28;20019;-50
2022/05/25 05:06:49;;;;;;;0.70;0.25;;;;;;;24.46;32.87;101574.50;5106109;28;20120;-52
2022/05/25 05:09:17;;;;;;;2.20;0.30;;;;;;;24.51;32.78;101585.94;5106105;28;20043;-51
2022/05/25 05:11:46;;;;;;;0.22;0.10;;;;;;;24.43;32.79;101591.94;5105758;28;20106;-46
2022/05/25 05:14:16;;;;;;;1.25;0.17;;;;;;;24.41;32.63;101583.16;5106252;28;20028;-45
2022/05/25 05:16:43;;;;;;;4.65;0.50;;;;;;;24.37;33.06;101583.94;5105791;28;20020;-46
2022/05/25 05:19:12;;;;;;;0.68;0.20;;;;;;;24.40;33.09;101586.63;5106226;28;20072;-45
2022/05/25 05:21:40;;;;;;;0.77;0.20;;;;;;;24.43;32.78;101591.03;5105755;28;20415;-50
2022/05/25 05:24:09;;;;;;;0.40;0.10;;;;;;;24.40;33.16;101599.72;5106100;28;20026;-49
2022/05/25 05:26:38;;;;;;;1.33;0.30;;;;;;;24.42;33.04;101590.16;5105909;28;20076;-44
2022/05/25 05:29:06;;;;;;;0.55;0.20;;;;;;;24.41;33.17;101600.59;5105783;28;20069;-47
2022/05/25 05:31:34;;;;;;;1.45;0.35;;;;;;;24.45;32.92;101596.34;5094842;28;20032;-48
2022/05/25 05:34:01;;;;;;;1.08;0.15;;;;;;;24.52;32.77;101608.69;5105545;28;20032;-45
2022/05/25 05:36:35;;;;;;;1.75;0.30;;;;;;;24.54;33.11;101609.63;5105945;28;20031;-52
2022/05/25 05:39:06;;;;;;;1.60;0.40;;;;;;;24.57;32.91;101614.94;5105702;28;20068;-49
2022/05/25 05:41:39;;;;;;;4.28;0.28;;;;;;;24.40;32.97;101584.00;5105657;28;20142;-49
2022/05/25 05:44:09;;;;;;;2.17;0.10;;;;;;;24.65;32.91;101613.38;5104574;28;20023;-45
2022/05/25 05:46:41;;;;;;;0.70;0.20;;;;;;;24.70;33.05;101624.84;5105421;28;20092;-46
2022/05/25 05:49:10;;;;;;;1.35;0.30;;;;;;;24.73;32.67;101627.56;5105298;28;20038;-47
2022/05/25 05:51:39;;;;;;;0.80;0.30;;;;;;;24.78;32.59;101625.00;5105485;28;20489;-52
2022/05/25 05:54:08;;;;;;;0.28;0.22;;;;;;;24.86;32.51;101612.03;5103892;28;20078;-47
2022/05/25 05:56:36;;;;;;;0.35;0.10;;;;;;;24.85;32.88;101610.28;5103770;28;20434;-46
2022/05/25 05:59:04;;;;;;;3.38;0.50;;;;;;;24.93;32.94;101611.31;5104141;28;20074;-49
2022/05/25 06:01:31;;;;;;;3.17;0.35;;;;;;;25.05;33.06;101612.41;5105135;28;20035;-45
2022/05/25 06:03:59;;;;;;;0.85;0.30;;;;;;;25.07;33.20;101626.44;5105030;28;20031;-45
2022/05/25 06:06:26;;;;;;;1.85;0.28;;;;;;;25.13;33.14;101630.06;5105260;28;20085;-46
2022/05/25 06:08:56;;;;;;;2.67;0.30;;;;;;;25.16;32.77;101624.88;5104778;28;20046;-46
2022/05/25 06:11:25;;;;;;;2.10;0.50;;;;;;;25.24;32.97;101635.50;5105196;28;20036;-46
2022/05/25 06:13:52;;;;;;;1.73;0.30;;;;;;;25.25;33.11;101634.66;5104974;27;20039;-46
2022/05/25 06:19:30;;;;;;;1.95;0.50;;;;;;;25.31;32.93;101644.38;5099651;28;20042;-45
2022/05/25 06:22:15;;;;;;;3.35;0.40;;;;;;;25.38;33.18;101645.38;5104498;28;20036;-49
2022/05/25 06:24:45;;;;;;;5.88;0.30;;;;;;;25.38;33.06;101638.41;5103872;28;20028;-47
2022/05/25 06:27:13;;;;;;;3.08;0.52;;;;;;;25.37;33.33;101648.88;5104714;28;20046;-47
2022/05/25 06:29:43;;;;;;;0.55;0.22;;;;;;;25.33;33.40;101653.19;5103079;28;20076;-46
2022/05/25 06:32:12;;;;;;;2.63;0.30;;;;;;;25.36;33.49;101654.97;5104433;28;20883;-46
2022/05/25 06:34:41;;;;;;;1.65;0.63;;;;;;;25.39;33.11;101665.53;5104505;28;20028;-46
2022/05/25 06:37:15;;;;;;;1.70;0.40;;;;;;;25.42;33.14;101660.38;5077983;28;20027;-48
2022/05/25 06:39:43;;;;;;;1.13;0.52;;;;;;;25.39;33.57;101653.31;5104524;28;20039;-46
2022/05/25 06:42:11;;;;;;;1.38;0.40;;;;;;;25.46;33.47;101655.19;5103157;28;20139;-45
2022/05/25 06:44:42;;;;;;;1.50;0.50;;;;;;;25.48;33.54;101673.63;5103296;28;20027;-47
2022/05/25 06:47:11;;;;;;;2.17;0.30;;;;;;;25.47;33.40;101675.34;5103454;28;20031;-48
2022/05/25 06:49:40;;;;;;;4.00;0.70;;;;;;;25.50;33.60;101671.88;5104491;28;20028;-47
2022/05/25 06:52:11;;;;;;;3.33;0.45;;;;;;;25.44;33.83;101662.16;5104346;28;20031;-47
2022/05/25 06:54:39;;;;;;;1.35;0.45;;;;;;;25.55;33.57;101678.13;5104375;28;20023;-45
2022/05/25 06:57:06;;;;;;;2.10;0.40;;;;;;;25.59;33.77;101672.06;5103972;28;20043;-45
2022/05/25 06:59:38;;;;;;;1.10;0.55;;;;;;;25.65;33.67;101680.94;5103789;28;20100;-46
2022/05/25 07:02:06;;;;;;;3.42;0.40;;;;;;;25.68;33.96;101678.31;5104393;28;20019;-49
2022/05/25 07:04:35;;;;;;;1.45;0.50;;;;;;;25.70;33.58;101681.88;5104261;28;20495;-47
2022/05/25 07:07:04;;;;;;;1.30;0.30;;;;;;;25.74;33.71;101692.44;5104064;28;20039;-50
2022/05/25 07:09:33;;;;;;;1.10;0.30;;;;;;;25.74;33.93;101687.19;5103989;28;20071;-45
2022/05/25 07:12:00;;;;;;;4.28;0.57;;;;;;;25.76;33.62;101682.84;5102715;28;20078;-47
2022/05/25 07:14:28;;;;;;;2.30;0.47;;;;;;;25.81;33.92;101698.72;5103959;28;20488;-49
2022/05/25 07:16:58;;;;;;;5.43;1.15;;;;;;;25.81;33.75;101695.19;5104142;28;20096;-47
2022/05/25 07:19:26;;;;;;;1.30;0.57;;;;;;;25.82;33.95;101700.47;5103609;28;20066;-46
2022/05/25 07:21:55;;;;;;;3.17;0.75;;;;;;;25.83;33.82;101698.72;5103928;28;20473;-49
2022/05/25 07:24:23;;;;;;;4.38;0.80;;;;;;;25.75;33.63;101690.72;5103657;28;20537;-45
2022/05/25 07:26:52;;;;;;;1.77;0.70;;;;;;;25.84;33.87;101698.75;5106063;28;20042;-46
2022/05/25 07:29:21;;;;;;;2.08;0.60;;;;;;;25.89;34.03;101704.97;5108282;28;20066;-50
2022/05/25 07:31:52;;;;;;;2.47;0.60;;;;;;;25.88;33.96;101703.22;5108044;28;20031;-49
2022/05/25 07:34:22;;;;;;;4.63;0.90;;;;;;;25.90;33.72;101708.47;5108463;27;20024;-51
2022/05/25 07:36:58;;;;;;;4.38;0.73;;;;;;;25.87;33.83;101705.81;5108156;28;20030;-47
2022/05/25 07:39:32;;;;;;;3.50;0.80;;;;;;;25.87;33.88;101709.31;5107554;28;20038;-48
2022/05/25 07:42:01;;;;;;;3.90;1.13;;;;;;;25.88;33.67;101707.59;5108323;28;20023;-47
2022/05/25 07:44:37;;;;;;;2.72;0.85;;;;;;;25.86;33.89;101709.31;5108245;28;20026;-46
2022/05/25 07:47:06;;;;;;;5.35;1.25;;;;;;;25.90;33.73;101719.91;5107993;28;20063;-46
2022/05/25 07:49:34;;;;;;;4.15;0.90;;;;;;;25.90;33.90;101719.91;5106249;28;20035;-47
2022/05/25 07:52:04;;;;;;;3.63;0.82;;;;;;;25.91;33.82;101718.13;5107336;28;20047;-45
2022/05/25 07:54:33;;;;;;;3.90;1.00;;;;;;;25.91;33.93;101732.19;5089375;28;20334;-46
2022/05/25 07:57:02;;;;;;;2.58;0.70;;;;;;;25.89;34.15;101730.41;5105480;28;20035;-45
2022/05/25 07:59:31;;;;;;;6.00;0.93;;;;;;;25.84;33.72;101734.69;5107154;28;20085;-48
2022/05/25 08:07:39;;;;;;;6.38;1.23;;;;;;;26.01;33.79;101746.38;5084660;28;20038;-46
2022/05/25 08:10:14;;;;;;;4.35;0.68;;;;;;;25.97;33.73;101744.53;5089066;28;20382;-45
2022/05/25 08:12:44;;;;;;;4.50;1.10;;;;;;;26.01;34.17;101745.47;5096421;28;20456;-45
2022/05/25 08:15:14;;;;;;;2.25;0.77;;;;;;;26.05;33.89;101744.66;5074448;28;20065;-46
2022/05/25 08:17:43;;;;;;;3.97;0.73;;;;;;;25.98;34.14;101748.94;5105516;28;20023;-45
2022/05/25 08:20:12;;;;;;;3.13;0.85;;;;;;;26.03;33.92;101742.03;5106707;28;20746;-45
2022/05/25 08:22:41;;;;;;;1.08;0.50;;;;;;;26.05;33.96;101752.56;5088083;28;20575;-46
2022/05/25 08:25:11;;;;;;;4.43;1.33;;;;;;;26.01;33.95;101749.00;5107146;28;20498;-45
2022/05/25 08:27:39;;;;;;;3.80;1.20;;;;;;;26.01;33.92;101754.25;5106896;28;20035;-46
2022/05/25 08:30:11;;;;;;;1.90;0.60;;;;;;;26.06;33.63;101763.06;5096170;28;20390;-45
2022/05/25 08:32:40;;;;;;;4.05;1.05;;;;;;;26.06;34.03;101756.94;5107034;28;20357;-45
2022/05/25 08:35:09;;;;;;;2.47;0.60;;;;;;;26.09;34.31;101765.75;5106774;28;20027;-47
2022/05/25 08:37:38;;;;;;;3.08;0.70;;;;;;;26.04;33.97;101771.81;5106107;28;20034;-45
2022/05/25 08:40:07;;;;;;;3.80;0.98;;;;;;;26.12;33.70;101774.59;5088315;28;20537;-45
2022/05/25 08:42:38;;;;;;;3.97;0.85;;;;;;;26.07;33.99;101772.75;5106233;28;20039;-47
2022/05/25 08:45:06;;;;;;;3.22;0.90;;;;;;;25.93;33.89;101742.72;5105262;28;20492;-45
2022/05/25 08:47:35;;;;;;;2.67;0.75;;;;;;;26.05;34.09;101779.75;5105502;28;20059;-45
2022/05/25 08:50:04;;;;;;;2.80;0.75;;;;;;;26.12;33.67;101775.50;5104561;28;20124;-45
2022/05/25 08:52:36;;;;;;;2.35;0.60;;;;;;;26.14;33.88;101786.03;5106752;28;20039;-45
2022/05/25 08:55:08;;;;;;;3.65;0.73;;;;;;;26.13;33.82;101776.38;5106071;28;20381;-49
2022/05/25 08:57:52;;;;;;;3.40;0.88;;;;;;;26.14;33.67;101772.88;5105228;28;20039;-46
2022/05/25 09:00:23;;;;;;;3.33;0.77;;;;;;;26.12;34.01;101780.75;5088074;28;20229;-46
2022/05/25 09:03:05;;;;;;;1.88;0.90;;;;;;;26.15;33.80;101777.28;5088341;28;20023;-46
2022/05/25 09:05:51;;;;;;;2.28;0.77;;;;;;;26.12;34.03;101778.13;5106233;28;20028;-45
2022/05/25 09:08:52;;;;;;;2.13;0.68;;;;;;;26.13;33.87;101774.66;5104693;28;20023;-49
2022/05/25 09:11:27;;;;;;;2.47;0.90;;;;;;;26.22;33.62;101780.03;5095012;28;20043;-45
2022/05/25 09:14:00;;;;;;;1.25;0.45;;;;;;;26.19;33.80;101772.09;5105877;28;20050;-45
2022/05/25 09:16:30;;;;;;;4.55;0.90;;;;;;;26.19;34.08;101779.13;5091082;28;20453;-46
2022/05/25 09:19:05;;;;;;;2.25;0.50;;;;;;;26.23;33.92;101773.94;5106177;28;20437;-46
2022/05/25 09:21:37;;;;;;;3.50;0.90;;;;;;;26.19;33.90;101766.84;5106025;28;20821;-46
2022/05/25 09:24:22;;;;;;;2.17;0.70;;;;;;;26.18;33.95;101765.06;5105753;28;20287;-48
2022/05/25 09:27:13;;;;;;;2.97;1.10;;;;;;;26.24;33.90;101777.44;5106087;28;20412;-48
2022/05/25 09:29:42;;;;;;;1.90;0.70;;;;;;;26.15;33.70;101767.63;5069849;28;20089;-46
2022/05/25 09:32:13;;;;;;;1.92;0.60;;;;;;;26.21;34.16;101786.16;5105802;28;20067;-46
2022/05/25 09:34:49;;;;;;;2.53;0.70;;;;;;;26.15;34.12;101770.28;5104321;28;20032;-45
2022/05/25 09:37:56;;;;;;;1.77;0.68;;;;;;;26.21;33.75;101783.53;5087355;28;20050;-47
2022/05/25 09:40:35;;;;;;;1.92;0.60;;;;;;;26.18;34.17;101791.38;5104625;28;20031;-45
2022/05/25 09:43:06;;;;;;;3.72;1.00;;;;;;;26.16;34.33;101793.09;5105591;28;20039;-47
2022/05/25 09:45:41;;;;;;;3.05;0.68;;;;;;;26.11;34.02;101794.78;5105845;28;20032;-49
2022/05/25 09:48:17;;;;;;;;;;;;;;;26.25;34.14;101800.25;5105416;28;20023;-45
2022/05/25 09:50:49;;;;;;;1.45;0.50;;;;;;;26.30;34.16;101810.88;5103137;28;19923;-45
2022/05/25 09:53:20;;;;;;;2.38;0.68;;;;;;;26.20;34.27;101794.03;5103780;28;20447;-46
2022/05/25 09:55:54;;;;;;;1.65;0.60;;;;;;;26.12;34.63;101793.91;5070542;28;20138;-45
2022/05/25 09:58:44;;;;;;;3.50;1.00;;;;;;;26.19;34.52;101803.66;5103974;28;20118;-47
2022/05/25 10:01:32;;;;;;;2.08;0.57;;;;;;;26.20;34.26;101801.94;5103899;28;20032;-47
2022/05/25 10:04:02;;;;;;;1.45;0.60;;;;;;;26.17;34.67;101794.84;5097919;28;20051;-46
2022/05/25 10:06:31;;;;;;;2.10;0.60;;;;;;;26.20;34.41;101797.53;5104795;28;20019;-48
2022/05/25 10:09:09;;;;;;;2.75;0.60;;;;;;;26.18;34.60;101798.38;5105028;28;20020;-45
2022/05/25 10:12:02;;;;;;;1.98;0.52;;;;;;;26.20;34.43;101807.19;5105112;28;20031;-45
2022/05/25 10:14:35;;;;;;;2.60;0.60;;;;;;;26.26;34.79;101812.53;5105083;28;20028;-47
2022/05/25 10:17:25;;;;;;;1.63;0.50;;;;;;;26.24;34.72;101814.25;5103523;28;20032;-48
2022/05/25 10:19:56;;;;;;;2.88;0.57;;;;;;;26.23;34.66;101813.38;5104734;28;20031;-46
2022/05/25 10:22:51;;;;;;;3.70;0.73;;;;;;;26.23;34.61;101809.84;5104617;28;20047;-49
2022/05/25 10:25:23;;;;;;;2.28;0.73;;;;;;;26.23;34.72;101826.53;5104637;28;20047;-45
2022/05/25 10:27:52;;;;;;;2.22;0.60;;;;;;;26.24;34.40;101825.66;5104863;28;20123;-48
2022/05/25 10:36:56;;;;;;;3.40;0.70;;;;;;;26.38;34.37;101827.63;5095356;28;20416;-46
2022/05/25 10:39:35;;;;;;;3.92;0.90;;;;;;;26.36;34.51;101832.88;5103152;28;20434;-47
2022/05/25 10:42:10;;;;;;;6.10;1.88;;;;;;;25.98;35.05;101847.97;5104375;28;20031;-45
2022/05/25 10:45:00;;;;;;;5.47;1.55;;;;;;;25.58;36.14;101850.69;5104686;28;20019;-47
2022/05/25 10:47:49;;;;;;;5.57;1.58;;;;;;;25.23;36.61;101842.94;5104454;28;20470;-44
2022/05/25 10:50:23;;;;;;;6.80;1.40;;;;;;;25.00;37.22;101848.56;5104538;28;20480;-45
2022/05/25 10:53:14;;;;;;;8.77;2.05;;;;;;;24.95;37.35;101847.56;5102641;28;20028;-44
2022/05/25 10:56:05;;;;;;;6.95;1.95;;;;;;;24.81;37.96;101847.25;5093225;28;20038;-45
2022/05/25 10:58:41;;;;;;;12.02;2.28;;;;;;;24.37;38.87;101845.28;5095786;28;20084;-44
2022/05/25 11:01:48;;;;;;;7.30;1.70;;;;;;;24.36;38.72;101847.00;5103890;28;20035;-45
2022/05/25 11:04:20;;;;;;;7.53;1.83;;;;;;;24.24;39.14;101837.09;5095258;28;20552;-48
2022/05/25 11:07:10;;;;;;;8.50;1.85;;;;;;;24.08;39.66;101845.41;5104274;28;20065;-46
2022/05/25 11:10:09;;;;;;;7.63;1.67;;;;;;;24.05;39.96;101840.09;5100460;28;20048;-45
2022/05/25 11:12:59;;;;;;;8.32;2.08;;;;;;;24.17;39.41;101839.50;5100465;28;20043;-45
2022/05/25 11:15:39;;;;;;;11.60;2.45;;;;;;;24.00;40.11;101828.59;5099908;28;20058;-45
2022/05/25 11:18:12;;;;;;;10.70;2.28;;;;;;;23.80;40.10;101827.19;5091953;28;20511;-49
2022/05/25 11:21:18;;;;;;;8.30;2.10;;;;;;;23.52;39.84;101839.50;5092737;28;20062;-48
2022/05/25 11:24:09;;;;;;;6.45;2.42;;;;;;;23.50;39.66;101842.94;5093457;28;20809;-46
2022/05/25 11:26:50;;;;;;;8.48;2.03;;;;;;;23.44;39.55;101848.88;5102464;28;20024;-45
2022/05/25 11:29:56;;;;;;;12.45;2.10;;;;;;;23.32;40.00;101851.16;5104080;28;20073;-45
2022/05/25 11:33:03;;;;;;;6.05;2.00;;;;;;;23.32;40.54;101845.91;5093432;28;20493;-45
2022/05/25 11:35:39;;;;;;;6.82;2.13;;;;;;;23.32;40.42;101848.53;5095743;28;20043;-44
2022/05/25 11:38:41;;;;;;;9.45;2.20;;;;;;;23.24;40.68;101850.00;5102799;28;20024;-44
2022/05/25 11:41:29;;;;;;;10.10;2.85;;;;;;;23.19;40.86;101853.34;5100715;28;20044;-44
2022/05/25 11:44:06;;;;;;;12.32;2.60;;;;;;;23.07;41.17;101855.59;5100172;28;20043;-44
2022/05/25 11:46:47;;;;;;;10.38;2.33;;;;;;;23.05;41.42;101871.25;5103789;28;20096;-47
2022/05/25 11:49:40;;;;;;;11.07;2.45;;;;;;;22.92;41.83;101848.13;5103800;28;20122;-48
2022/05/25 11:52:31;;;;;;;10.07;2.40;;;;;;;23.21;41.63;101875.25;5103853;28;20042;-44
2022/05/25 11:55:25;;;;;;;11.32;2.47;;;;;;;23.29;41.33;101879.84;5099976;28;21057;-44
2022/05/25 11:58:11;;;;;;;10.35;2.10;;;;;;;23.40;40.85;101877.56;5100114;28;20047;-44
2022/05/25 12:00:43;;;;;;;24.58;2.53;;;;;;;23.27;41.30;101871.94;5103712;28;20228;-46
2022/05/25 12:03:34;;;;;;;7.50;2.30;;;;;;;23.38;41.37;101880.09;5103717;28;20026;-44
2022/05/25 12:06:27;;;;;;;9.52;2.22;;;;;;;23.39;41.43;101879.28;5100510;28;20039;-49
2022/05/25 12:09:33;;;;;;;12.00;2.78;;;;;;;23.56;41.31;101887.66;5098862;28;20050;-45
2022/05/25 12:12:21;;;;;;;9.73;2.10;;;;;;;23.23;41.66;101858.72;5103122;28;20042;-44
2022/05/25 12:15:09;;;;;;;10.73;2.90;;;;;;;23.24;41.55;101886.66;5103398;28;20067;-45
2022/05/25 12:17:57;;;;;;;11.98;2.50;;;;;;;23.26;41.72;101891.09;5106219;28;20034;-45